Time;durP1;ratioP1;P1;durP2;ratioP2;P2;SDS_P1;SDS_P2;PMS_P1;PMS_P2;Temp;Humidity;BMP_temperature;BMP_pressure;BME280_temperature;BME280_humidity;BME280_pressure;Samples;Min_cycle;Max_cycle;Signal;HPM_P1;HPM_P2
2023/03/02 00:02:00;;;;;;;9.60;5.05;;;0.90;99.90;;;;;;6243884;23;20099;-86
2023/03/02 00:04:49;;;;;;;10.35;4.97;;;0.90;99.90;;;;;;6218365;23;20000;-86
2023/03/02 00:07:26;;;;;;;10.25;5.00;;;0.90;99.90;;;;;;6217764;23;20027;-86
2023/03/02 00:09:53;;;;;;;12.25;5.88;;;0.80;99.90;;;;;;6218663;23;20026;-87
2023/03/02 00:12:18;;;;;;;13.23;6.78;;;0.90;99.90;;;;;;6217801;23;20370;-87
2023/03/02 00:14:44;;;;;;;15.20;6.63;;;0.90;99.90;;;;;;6218709;23;20011;-87
2023/03/02 00:17:09;;;;;;;14.75;7.25;;;0.90;99.90;;;;;;6217580;23;20119;-87
2023/03/02 00:19:35;;;;;;;16.17;7.75;;;1.00;99.90;;;;;;6213235;23;20023;-87
2023/03/02 00:22:01;;;;;;;16.00;7.85;;;1.00;99.90;;;;;;6186651;23;20011;-86
2023/03/02 00:24:27;;;;;;;16.98;8.55;;;1.00;99.90;;;;;;6214983;23;20120;-87
2023/03/02 00:26:52;;;;;;;15.45;7.70;;;1.00;99.90;;;;;;6214796;23;20016;-86
2023/03/02 00:29:18;;;;;;;20.50;10.35;;;1.00;99.90;;;;;;6187617;23;20003;-87
2023/03/02 00:31:43;;;;;;;21.08;10.40;;;1.00;99.90;;;;;;6187868;23;20099;-87
2023/03/02 00:34:09;;;;;;;24.73;11.50;;;1.00;99.90;;;;;;6187869;23;20012;-87
2023/03/02 00:36:34;;;;;;;26.60;12.48;;;1.10;99.90;;;;;;6188835;23;20423;-87
2023/03/02 00:39:00;;;;;;;30.65;13.15;;;1.10;99.90;;;;;;6188204;23;20001;-88
2023/03/02 00:41:26;;;;;;;25.80;12.27;;;1.10;99.90;;;;;;6186523;23;20353;-87
2023/03/02 00:43:51;;;;;;;30.67;14.60;;;1.00;99.90;;;;;;6188112;23;20043;-87
2023/03/02 00:46:21;;;;;;;27.85;13.68;;;0.90;99.90;;;;;;6188026;23;20008;-87
2023/03/02 00:48:47;;;;;;;30.48;15.80;;;0.90;99.90;;;;;;6188325;23;20088;-87
2023/03/02 00:51:14;;;;;;;30.88;16.20;;;0.90;99.90;;;;;;6186073;23;20004;-88
2023/03/02 00:53:40;;;;;;;33.13;16.10;;;0.90;99.90;;;;;;6214014;23;20615;-87
2023/03/02 00:56:07;;;;;;;29.05;13.30;;;0.90;99.90;;;;;;6187649;23;20005;-87
2023/03/02 00:58:33;;;;;;;34.15;15.63;;;0.80;99.90;;;;;;6214316;23;20004;-87
2023/03/02 01:01:03;;;;;;;38.25;19.00;;;0.80;99.90;;;;;;6188437;23;20004;-87
2023/03/02 01:03:29;;;;;;;34.13;17.98;;;0.80;99.90;;;;;;6188054;23;20000;-87
2023/03/02 01:05:55;;;;;;;37.53;19.25;;;0.80;99.90;;;;;;6187712;23;20001;-87
2023/03/02 01:08:22;;;;;;;41.33;19.13;;;0.80;99.90;;;;;;6213753;23;20407;-87
2023/03/02 01:10:48;;;;;;;39.63;20.92;;;0.80;99.90;;;;;;6187787;23;20051;-87
2023/03/02 01:13:13;;;;;;;40.50;20.48;;;0.80;99.90;;;;;;6213808;23;20339;-88
2023/03/02 01:15:39;;;;;;;47.28;22.25;;;0.80;99.90;;;;;;6188272;23;20079;-87
2023/03/02 01:18:04;;;;;;;47.97;24.23;;;0.80;99.90;;;;;;6187801;23;20430;-87
2023/03/02 01:20:30;;;;;;;48.72;23.58;;;0.80;99.90;;;;;;6204634;23;20043;-87
2023/03/02 01:22:56;;;;;;;50.15;23.92;;;0.90;99.90;;;;;;6216942;23;20004;-87
2023/03/02 01:25:22;;;;;;;52.78;23.27;;;0.80;99.90;;;;;;6218078;23;20099;-87
2023/03/02 01:27:48;;;;;;;47.75;22.90;;;0.80;99.90;;;;;;6218371;23;20387;-87
2023/03/02 01:30:13;;;;;;;50.58;23.13;;;0.80;99.90;;;;;;6218177;23;20042;-87
2023/03/02 01:32:39;;;;;;;50.03;23.92;;;0.70;99.90;;;;;;6217624;23;20020;-88
2023/03/02 01:35:05;;;;;;;53.70;26.63;;;0.70;99.90;;;;;;6217033;23;20000;-87
2023/03/02 01:37:30;;;;;;;50.45;24.60;;;0.60;99.90;;;;;;6217086;23;20134;-88
2023/03/02 01:39:56;;;;;;;56.72;26.75;;;0.60;99.90;;;;;;6217751;23;20467;-88
2023/03/02 01:42:22;;;;;;;59.90;27.35;;;0.60;99.90;;;;;;6216628;23;20011;-88
2023/03/02 01:44:50;;;;;;;58.85;26.38;;;0.60;99.90;;;;;;6218024;23;20005;-87
2023/03/02 01:47:24;;;;;;;59.67;28.70;;;0.60;99.90;;;;;;6217628;23;20050;-87
2023/03/02 01:50:18;;;;;;;61.30;28.73;;;0.60;99.90;;;;;;6218787;22;20005;-87
2023/03/02 01:52:43;;;;;;;61.42;27.20;;;0.60;99.90;;;;;;6211966;23;20477;-87
2023/03/02 01:55:13;;;;;;;65.05;29.52;;;0.60;99.90;;;;;;6218898;23;20004;-88
2023/03/02 01:57:43;;;;;;;63.53;28.38;;;0.60;99.90;;;;;;6219794;22;20099;-88
2023/03/02 02:00:13;;;;;;;58.92;26.75;;;0.60;99.90;;;;;;6218142;23;20004;-88
2023/03/02 02:02:40;;;;;;;62.83;28.08;;;0.60;99.90;;;;;;6217581;23;20090;-88
2023/03/02 02:05:09;;;;;;;61.15;27.85;;;0.60;99.90;;;;;;6217902;23;20401;-88
2023/03/02 02:07:35;;;;;;;59.83;26.08;;;0.60;99.90;;;;;;6245573;23;20051;-88
2023/03/02 02:10:02;;;;;;;60.30;26.70;;;0.60;99.90;;;;;;6218153;23;20454;-88
2023/03/02 02:12:27;;;;;;;64.60;29.05;;;0.50;99.90;;;;;;6218266;23;20043;-88
2023/03/02 02:14:54;;;;;;;66.45;29.40;;;0.60;99.90;;;;;;6218590;23;20004;-88
2023/03/02 02:17:20;;;;;;;58.63;26.25;;;0.60;99.90;;;;;;6218434;23;20019;-87
2023/03/02 02:20:22;;;;;;;58.72;26.00;;;0.70;99.90;;;;;;6218215;23;20035;-87
2023/03/02 02:22:58;;;;;;;61.40;27.60;;;0.60;99.90;;;;;;6203812;23;20015;-87
2023/03/02 02:25:42;;;;;;;59.97;25.30;;;0.60;99.90;;;;;;6217476;23;19996;-88
2023/03/02 02:28:23;;;;;;;58.47;26.00;;;0.60;99.90;;;;;;6218242;23;20015;-87
2023/03/02 02:30:54;;;;;;;59.15;26.75;;;0.50;99.90;;;;;;6244837;23;20075;-87
2023/03/02 02:33:23;;;;;;;65.10;28.63;;;0.50;99.90;;;;;;6217971;23;20503;-88
2023/03/02 02:35:51;;;;;;;57.35;24.95;;;0.50;99.90;;;;;;6218681;23;20003;-88
2023/03/02 02:38:20;;;;;;;59.95;26.08;;;0.50;99.90;;;;;;6217981;23;20446;-88
2023/03/02 02:40:54;;;;;;;57.28;26.27;;;0.40;99.90;;;;;;6217940;23;20004;-88
2023/03/02 02:43:21;;;;;;;65.18;27.80;;;0.40;99.90;;;;;;6244475;23;20038;-88
2023/03/02 02:45:50;;;;;;;67.13;29.15;;;0.40;99.90;;;;;;6217925;23;19996;-88
2023/03/02 02:48:19;;;;;;;57.45;23.92;;;0.40;99.90;;;;;;6216662;23;20028;-88
2023/03/02 02:50:46;;;;;;;63.72;27.40;;;0.30;99.90;;;;;;6217601;23;20007;-88
2023/03/02 02:53:24;;;;;;;61.28;26.42;;;0.30;99.90;;;;;;6216870;23;20063;-87
2023/03/02 02:55:53;;;;;;;59.55;24.95;;;0.30;99.90;;;;;;6217717;23;20004;-87
2023/03/02 02:58:42;;;;;;;66.20;27.60;;;0.30;99.90;;;;;;6217811;23;20000;-87
2023/03/02 03:01:10;;;;;;;70.07;29.55;;;0.40;99.90;;;;;;6216683;23;20012;-87
2023/03/02 03:03:38;;;;;;;64.07;27.05;;;0.30;99.90;;;;;;6218066;23;20015;-87
2023/03/02 03:06:07;;;;;;;68.38;26.83;;;0.30;99.90;;;;;;6216606;23;20099;-87
2023/03/02 03:08:45;;;;;;;60.58;26.48;;;0.30;99.90;;;;;;6218200;23;20036;-88
2023/03/02 03:11:14;;;;;;;62.50;27.25;;;0.30;99.90;;;;;;6244217;23;20283;-88
2023/03/02 03:13:42;;;;;;;71.07;29.33;;;0.30;99.90;;;;;;6217843;23;20008;-87
2023/03/02 03:16:11;;;;;;;58.88;26.27;;;0.30;99.90;;;;;;6216028;23;20004;-86
2023/03/02 03:18:37;;;;;;;66.05;27.20;;;0.20;99.90;;;;;;6217276;23;20000;-87
2023/03/02 03:21:03;;;;;;;67.05;26.13;;;0.20;99.90;;;;;;6216752;23;20012;-88
2023/03/02 03:23:29;;;;;;;64.78;26.48;;;0.30;99.90;;;;;;6216378;23;20335;-87
2023/03/02 03:25:54;;;;;;;60.92;26.02;;;0.20;99.90;;;;;;6217288;23;20000;-87
2023/03/02 03:28:20;;;;;;;71.15;28.70;;;0.20;99.90;;;;;;6216263;23;20361;-88
2023/03/02 03:30:45;;;;;;;67.97;28.75;;;0.20;99.90;;;;;;6217790;23;20434;-88
2023/03/02 03:33:11;;;;;;;67.22;26.40;;;0.20;99.90;;;;;;6244017;23;20008;-88
2023/03/02 03:35:37;;;;;;;60.03;26.95;;;0.20;99.90;;;;;;6218473;23;20000;-88
2023/03/02 03:38:05;;;;;;;60.47;25.23;;;0.20;99.90;;;;;;6217759;23;20000;-88
2023/03/02 03:40:33;;;;;;;60.22;26.08;;;0.20;99.90;;;;;;6218125;23;20004;-87
2023/03/02 03:43:03;;;;;;;65.03;27.27;;;0.20;99.90;;;;;;6216644;23;20001;-88
2023/03/02 03:45:29;;;;;;;52.45;23.58;;;0.20;99.90;;;;;;6217465;23;20008;-88
2023/03/02 03:47:55;;;;;;;63.63;26.88;;;0.10;99.90;;;;;;6216337;23;20007;-87
2023/03/02 03:50:21;;;;;;;59.90;25.23;;;0.10;99.90;;;;;;6217890;23;20012;-89
2023/03/02 03:52:46;;;;;;;58.47;25.65;;;0.10;99.90;;;;;;6216696;23;20019;-87
2023/03/02 03:55:13;;;;;;;70.30;27.30;;;0.10;99.90;;;;;;6217629;23;20358;-88
2023/03/02 03:57:39;;;;;;;67.90;27.52;;;0.10;99.90;;;;;;6216051;22;20040;-87
2023/03/02 04:00:09;;;;;;;60.85;25.88;;;0.10;99.90;;;;;;6216064;23;20015;-88
2023/03/02 04:02:35;;;;;;;67.40;25.98;;;0.00;99.90;;;;;;6217691;23;20062;-88
2023/03/02 04:05:05;;;;;;;62.78;25.25;;;0.00;99.90;;;;;;6217504;23;19996;-86
2023/03/02 04:07:37;;;;;;;64.03;25.60;;;0.00;99.90;;;;;;6217192;23;20008;-88
2023/03/02 04:10:04;;;;;;;;;;;0.00;99.90;;;;;;6218070;23;20434;-88
2023/03/02 04:12:31;;;;;;;60.50;24.02;;;0.00;99.90;;;;;;6217292;23;19969;-88
2023/03/02 04:14:57;;;;;;;62.75;24.70;;;-0.10;99.90;;;;;;6217701;23;20000;-88
2023/03/02 04:17:22;;;;;;;66.32;25.20;;;-0.10;99.90;;;;;;6216889;23;20033;-88
2023/03/02 04:19:48;;;;;;;65.85;25.20;;;-0.10;99.90;;;;;;6217367;23;20015;-88
2023/03/02 04:22:15;;;;;;;61.55;25.73;;;-0.10;99.90;;;;;;6217362;23;20004;-88
2023/03/02 04:24:40;;;;;;;65.88;26.90;;;-0.20;99.90;;;;;;6217698;23;20065;-88
2023/03/02 04:27:06;;;;;;;70.43;28.88;;;-0.10;99.90;;;;;;6218809;23;20090;-88
2023/03/02 04:29:32;;;;;;;59.60;24.40;;;-0.10;99.90;;;;;;6248764;23;20011;-88
2023/03/02 04:31:57;;;;;;;65.60;27.58;;;-0.10;99.90;;;;;;6245303;23;20012;-87
2023/03/02 04:34:24;;;;;;;68.72;27.48;;;-0.10;99.90;;;;;;6216150;23;20050;-88
2023/03/02 04:36:50;;;;;;;65.55;26.77;;;-0.10;99.90;;;;;;6217720;23;20012;-87
2023/03/02 04:39:17;;;;;;;66.82;26.02;;;-0.10;99.90;;;;;;6214315;23;20011;-88
2023/03/02 04:41:43;;;;;;;60.53;25.88;;;-0.10;99.90;;;;;;6216588;23;20087;-88
2023/03/02 04:44:09;;;;;;;67.50;26.88;;;-0.10;99.90;;;;;;6216889;23;20008;-88
2023/03/02 04:46:34;;;;;;;74.93;28.88;;;-0.10;99.90;;;;;;6216318;23;20008;-87
2023/03/02 04:49:00;;;;;;;71.13;26.80;;;-0.10;99.90;;;;;;6216317;23;20015;-88
2023/03/02 04:51:33;;;;;;;67.45;25.33;;;-0.10;99.90;;;;;;6216358;23;20007;-88
2023/03/02 04:54:02;;;;;;;61.85;24.85;;;-0.20;99.90;;;;;;6216679;23;20008;-88
2023/03/02 04:56:28;;;;;;;75.68;28.25;;;-0.20;99.90;;;;;;6216370;23;20011;-86
2023/03/02 04:58:54;;;;;;;69.85;26.50;;;-0.30;99.90;;;;;;6215516;23;20004;-88
2023/03/02 05:01:20;;;;;;;66.35;25.48;;;-0.30;99.90;;;;;;6216681;23;20008;-88
2023/03/02 05:03:46;;;;;;;67.72;25.95;;;-0.30;99.90;;;;;;6216503;23;20031;-88
2023/03/02 05:06:13;;;;;;;70.40;27.73;;;-0.30;99.90;;;;;;6215561;23;20003;-88
2023/03/02 05:08:38;;;;;;;67.82;26.70;;;-0.40;99.90;;;;;;6216442;23;20032;-88
2023/03/02 05:11:06;;;;;;;70.40;27.02;;;-0.30;99.90;;;;;;6216219;23;20323;-88
2023/03/02 05:13:33;;;;;;;72.88;28.70;;;-0.30;99.90;;;;;;6217032;23;20043;-88
2023/03/02 05:15:59;;;;;;;77.90;27.20;;;-0.40;99.90;;;;;;6216075;23;20450;-88
2023/03/02 05:18:25;;;;;;;76.82;27.80;;;-0.40;99.90;;;;;;6215873;23;20422;-88
2023/03/02 05:20:52;;;;;;;71.50;26.88;;;-0.40;99.90;;;;;;6218738;23;20082;-87
2023/03/02 05:23:22;;;;;;;63.47;24.95;;;-0.40;99.90;;;;;;6218014;23;20004;-88
2023/03/02 05:25:52;;;;;;;72.30;28.05;;;-0.50;99.90;;;;;;6217434;23;20003;-88
2023/03/02 05:28:19;;;;;;;68.22;26.23;;;-0.50;99.90;;;;;;6216943;23;20418;-88
2023/03/02 05:30:46;;;;;;;74.40;28.70;;;-0.50;99.90;;;;;;6218769;23;20000;-88
2023/03/02 05:33:12;;;;;;;68.28;25.85;;;-0.50;99.90;;;;;;6218353;23;20381;-88
2023/03/02 05:35:37;;;;;;;76.20;27.80;;;-0.50;99.90;;;;;;6217707;23;20027;-88
2023/03/02 05:38:03;;;;;;;70.43;27.20;;;-0.60;99.90;;;;;;6218027;23;20008;-89
2023/03/02 05:40:30;;;;;;;79.15;28.50;;;-0.50;99.90;;;;;;6216429;23;20422;-87
2023/03/02 05:42:55;;;;;;;72.40;26.08;;;-0.60;99.90;;;;;;6218734;23;20007;-88
2023/03/02 05:45:27;;;;;;;68.60;25.75;;;-0.60;99.90;;;;;;6218780;23;20086;-88
2023/03/02 05:47:53;;;;;;;70.68;26.52;;;-0.60;99.90;;;;;;6219393;23;20000;-88
2023/03/02 05:50:18;;;;;;;70.95;27.27;;;-0.70;99.90;;;;;;6218784;23;20442;-88
2023/03/02 05:52:45;;;;;;;66.20;24.35;;;-0.70;99.90;;;;;;6245043;23;20044;-88
2023/03/02 05:55:12;;;;;;;75.68;26.80;;;-0.70;99.90;;;;;;6219056;23;20009;-88
2023/03/02 05:57:38;;;;;;;72.05;27.02;;;-0.70;99.90;;;;;;6218043;23;20006;-88
2023/03/02 06:00:04;;;;;;;67.13;25.20;;;-0.60;99.90;;;;;;6217687;23;20039;-87
2023/03/02 06:02:31;;;;;;;65.60;24.33;;;-0.60;99.90;;;;;;6217712;23;20016;-87
2023/03/02 06:04:56;;;;;;;66.40;24.02;;;-0.70;99.90;;;;;;6218919;23;20047;-88
2023/03/02 06:07:22;;;;;;;72.25;25.85;;;-0.70;99.90;;;;;;6218693;23;20083;-87
2023/03/02 06:09:48;;;;;;;67.20;25.02;;;-0.60;99.90;;;;;;6219018;23;20004;-88
2023/03/02 06:12:13;;;;;;;68.15;25.60;;;-0.60;99.90;;;;;;6218129;23;20095;-87
2023/03/02 06:14:39;;;;;;;70.32;26.65;;;-0.60;99.90;;;;;;6219052;23;20381;-88
2023/03/02 06:17:05;;;;;;;79.43;27.13;;;-0.60;99.90;;;;;;6216144;23;20032;-87
2023/03/02 06:19:30;;;;;;;73.43;26.80;;;-0.60;99.90;;;;;;6215035;23;20024;-88
2023/03/02 06:21:56;;;;;;;74.80;26.50;;;-0.60;99.90;;;;;;6218155;23;20004;-89
2023/03/02 06:24:21;;;;;;;74.97;28.33;;;-0.50;99.90;;;;;;6217525;23;20000;-88
2023/03/02 06:26:47;;;;;;;68.82;24.33;;;-0.60;99.90;;;;;;6218698;23;20031;-88
2023/03/02 06:29:12;;;;;;;70.13;25.73;;;-0.60;99.90;;;;;;6218820;23;20000;-88
2023/03/02 06:31:38;;;;;;;68.25;25.80;;;-0.50;99.90;;;;;;6217805;23;20004;-88
2023/03/02 06:34:03;;;;;;;66.85;25.25;;;-0.60;99.90;;;;;;6218354;23;20000;-88
2023/03/02 06:36:29;;;;;;;70.57;24.25;;;-0.60;99.90;;;;;;6218817;23;20134;-88
2023/03/02 06:38:54;;;;;;;71.88;26.77;;;-0.60;99.90;;;;;;6217281;23;20006;-88
2023/03/02 06:41:20;;;;;;;75.43;26.48;;;-0.60;99.90;;;;;;6226118;22;20350;-87
2023/03/02 06:43:45;;;;;;;65.82;26.17;;;-0.60;99.90;;;;;;6220580;23;20343;-87
2023/03/02 06:46:11;;;;;;;73.57;26.30;;;-0.60;99.90;;;;;;6217263;23;20054;-88
2023/03/02 06:48:37;;;;;;;80.10;28.08;;;-0.50;99.90;;;;;;6218076;23;20091;-88
2023/03/02 06:51:03;;;;;;;66.45;24.50;;;-0.50;99.90;;;;;;6220486;23;20004;-87
2023/03/02 06:53:28;;;;;;;61.92;24.42;;;-0.50;99.90;;;;;;6220400;23;20016;-87
2023/03/02 06:55:54;;;;;;;72.55;27.42;;;-0.50;99.90;;;;;;6219440;23;20004;-88
2023/03/02 06:58:19;;;;;;;62.80;24.35;;;-0.50;99.90;;;;;;6247137;23;20032;-89
2023/03/02 07:00:45;;;;;;;61.40;24.42;;;-0.40;99.90;;;;;;6219338;23;20027;-87
2023/03/02 07:03:10;;;;;;;64.22;23.55;;;-0.40;99.90;;;;;;6220364;23;20058;-88
2023/03/02 07:05:36;;;;;;;72.65;25.45;;;-0.40;99.90;;;;;;6225356;23;19996;-88
2023/03/02 07:08:02;;;;;;;62.40;23.55;;;-0.30;99.90;;;;;;6223820;23;20008;-88
2023/03/02 07:10:27;;;;;;;76.45;26.83;;;-0.30;99.90;;;;;;6217780;23;20008;-87
2023/03/02 07:12:53;;;;;;;64.57;24.83;;;-0.30;99.90;;;;;;6217917;23;20075;-86
2023/03/02 07:15:19;;;;;;;70.57;26.50;;;-0.30;99.90;;;;;;6215238;23;20237;-87
2023/03/02 07:17:45;;;;;;;73.40;26.50;;;-0.30;99.90;;;;;;6219051;23;20011;-86
2023/03/02 07:20:13;;;;;;;68.10;23.65;;;-0.20;99.90;;;;;;6218010;23;20012;-88
2023/03/02 07:22:39;;;;;;;66.80;24.10;;;-0.20;99.90;;;;;;6218734;23;20229;-88
2023/03/02 07:25:05;;;;;;;65.35;25.17;;;-0.10;99.90;;;;;;6218251;23;20377;-87
2023/03/02 07:27:31;;;;;;;65.63;24.40;;;-0.10;99.90;;;;;;6218241;23;20015;-87
2023/03/02 07:29:56;;;;;;;63.65;24.90;;;0.00;99.90;;;;;;6219668;23;20468;-87
2023/03/02 07:32:22;;;;;;;72.68;25.98;;;0.00;99.90;;;;;;6216923;22;20043;-87
2023/03/02 07:34:47;;;;;;;65.95;25.10;;;0.10;99.90;;;;;;6218198;22;20443;-88
2023/03/02 07:37:13;;;;;;;61.72;23.05;;;0.20;99.90;;;;;;6219754;23;20063;-87
2023/03/02 07:39:38;;;;;;;69.00;26.58;;;0.20;99.90;;;;;;6220608;23;20907;-87
2023/03/02 07:42:05;;;;;;;61.88;22.98;;;0.30;99.90;;;;;;6220418;23;20054;-87
2023/03/02 07:44:31;;;;;;;62.83;23.83;;;0.30;99.90;;;;;;6219949;23;20004;-86
2023/03/02 07:46:57;;;;;;;65.03;25.27;;;0.40;99.90;;;;;;6219861;23;20039;-87
2023/03/02 07:49:23;;;;;;;60.35;23.30;;;0.50;99.90;;;;;;6219275;23;20000;-86
2023/03/02 07:51:48;;;;;;;61.30;23.20;;;0.50;99.90;;;;;;6219442;23;20095;-86
2023/03/02 07:54:14;;;;;;;59.63;23.67;;;0.60;99.90;;;;;;6219603;23;20029;-84
2023/03/02 07:56:40;;;;;;;55.97;23.42;;;0.70;99.90;;;;;;6219799;22;20012;-85
2023/03/02 07:59:05;;;;;;;56.72;22.92;;;0.70;99.90;;;;;;6219819;23;20370;-85
2023/03/02 08:01:31;;;;;;;53.35;22.15;;;0.80;99.90;;;;;;6217271;23;20008;-86
2023/03/02 08:03:56;;;;;;;57.20;22.90;;;0.90;99.90;;;;;;6217632;23;20057;-86
2023/03/02 08:06:22;;;;;;;55.83;21.23;;;1.00;99.90;;;;;;6217321;23;20005;-85
2023/03/02 08:08:48;;;;;;;55.30;21.17;;;1.10;99.90;;;;;;6216768;23;19996;-85
2023/03/02 08:11:16;;;;;;;51.95;20.40;;;1.20;99.90;;;;;;6240924;22;20008;-85
2023/03/02 08:13:42;;;;;;;52.00;20.85;;;1.20;99.90;;;;;;6213517;23;20008;-86
2023/03/02 08:16:10;;;;;;;60.47;21.65;;;1.30;99.90;;;;;;6243072;23;20327;-85
2023/03/02 08:18:36;;;;;;;55.00;20.95;;;1.40;99.90;;;;;;6216693;23;20095;-85
2023/03/02 08:21:04;;;;;;;51.70;19.75;;;1.50;99.90;;;;;;6216857;23;20019;-85
2023/03/02 08:23:29;;;;;;;48.70;19.75;;;1.60;99.90;;;;;;6217991;23;20000;-85
2023/03/02 08:25:55;;;;;;;65.80;21.02;;;1.60;99.90;;;;;;6217140;23;20028;-86
2023/03/02 08:28:21;;;;;;;49.25;18.42;;;1.70;99.90;;;;;;6217629;23;20008;-86
2023/03/02 08:30:55;;;;;;;52.17;21.05;;;1.80;99.90;;;;;;6218461;23;20036;-85
2023/03/02 08:33:21;;;;;;;53.65;21.02;;;1.80;99.90;;;;;;6217288;23;20058;-85
2023/03/02 08:36:01;;;;;;;51.25;21.35;;;1.80;99.90;;;;;;6217920;23;20000;-85
2023/03/02 08:38:28;;;;;;;48.08;18.90;;;1.90;99.90;;;;;;6218555;23;20027;-85
2023/03/02 08:40:54;;;;;;;53.63;20.52;;;1.90;99.90;;;;;;6218397;23;20083;-85
2023/03/02 08:43:20;;;;;;;55.92;20.60;;;2.00;99.90;;;;;;6218612;23;20004;-85
2023/03/02 08:45:51;;;;;;;52.58;20.33;;;2.00;99.90;;;;;;6218307;23;20000;-85
2023/03/02 08:48:17;;;;;;;54.58;21.33;;;2.10;99.90;;;;;;6217044;23;20438;-85
2023/03/02 08:50:42;;;;;;;53.45;22.00;;;2.10;99.90;;;;;;6218018;23;20047;-84
2023/03/02 08:53:08;;;;;;;48.97;20.85;;;2.20;99.90;;;;;;6217994;23;20019;-84
2023/03/02 08:55:35;;;;;;;53.35;19.92;;;2.30;99.90;;;;;;6219013;23;20427;-85
2023/03/02 08:58:01;;;;;;;48.72;19.13;;;2.40;99.90;;;;;;6219086;23;20026;-85
2023/03/02 09:00:27;;;;;;;51.78;20.80;;;2.50;99.90;;;;;;6218357;23;20004;-84
2023/03/02 09:02:52;;;;;;;49.33;20.50;;;2.50;99.90;;;;;;6217960;23;20008;-84
2023/03/02 09:05:18;;;;;;;50.63;21.73;;;2.60;99.90;;;;;;6217911;23;20000;-84
2023/03/02 09:07:43;;;;;;;45.78;19.48;;;2.70;99.90;;;;;;6217803;23;20358;-84
2023/03/02 09:10:09;;;;;;;47.88;19.40;;;2.80;99.90;;;;;;6217251;23;20004;-84
2023/03/02 09:12:35;;;;;;;47.22;20.25;;;2.90;99.90;;;;;;6218420;23;20050;-83
2023/03/02 09:15:01;;;;;;;42.63;17.45;;;2.90;99.90;;;;;;6217955;23;20000;-84
2023/03/02 09:17:26;;;;;;;47.10;19.75;;;3.00;99.90;;;;;;6218631;23;20008;-84
2023/03/02 09:19:52;;;;;;;45.17;19.10;;;3.00;99.90;;;;;;6217574;23;20016;-84
2023/03/02 09:22:17;;;;;;;46.17;18.40;;;3.10;99.90;;;;;;6243987;23;20426;-84
2023/03/02 09:24:43;;;;;;;40.03;16.67;;;3.10;99.90;;;;;;6217069;23;20082;-84
2023/03/02 09:27:08;;;;;;;43.60;18.00;;;3.20;99.90;;;;;;6217819;23;20343;-84
2023/03/02 09:29:34;;;;;;;47.05;19.95;;;3.20;99.90;;;;;;6217557;23;20047;-84
2023/03/02 09:31:59;;;;;;;42.70;17.77;;;3.30;99.90;;;;;;6217459;23;20062;-84
2023/03/02 09:34:25;;;;;;;50.30;19.60;;;3.40;99.90;;;;;;6217080;23;20008;-84
2023/03/02 09:36:50;;;;;;;44.00;18.13;;;3.30;99.90;;;;;;6244899;23;20069;-83
2023/03/02 09:39:18;;;;;;;40.50;17.20;;;3.40;99.90;;;;;;6244138;23;20000;-83
2023/03/02 09:42:04;;;;;;;43.40;17.95;;;3.40;99.90;;;;;;6217198;23;20011;-84
2023/03/02 09:44:41;;;;;;;45.00;19.70;;;3.40;99.90;;;;;;6217672;23;20011;-84
2023/03/02 09:47:24;;;;;;;39.63;15.35;;;3.40;99.90;;;;;;6217228;23;20000;-83
2023/03/02 09:49:59;;;;;;;44.90;18.00;;;3.50;99.90;;;;;;6217677;23;20380;-83
2023/03/02 09:52:35;;;;;;;44.70;18.65;;;3.50;99.90;;;;;;6217647;23;20103;-83
2023/03/02 09:55:23;;;;;;;44.28;18.23;;;3.50;99.90;;;;;;6244027;23;20004;-84
2023/03/02 09:57:49;;;;;;;47.15;18.35;;;3.60;99.90;;;;;;6217984;23;19999;-84
2023/03/02 10:00:24;;;;;;;41.05;17.27;;;3.60;99.90;;;;;;6217386;23;20027;-84
2023/03/02 10:02:55;;;;;;;40.90;16.60;;;3.80;99.90;;;;;;6217239;23;20450;-84
2023/03/02 10:05:28;;;;;;;38.35;17.25;;;3.80;99.90;;;;;;6216824;23;20398;-84
2023/03/02 10:07:54;;;;;;;43.30;18.77;;;3.90;99.90;;;;;;6216839;23;19996;-83
2023/03/02 10:10:44;;;;;;;40.28;16.75;;;3.90;99.90;;;;;;6216670;22;20453;-83
2023/03/02 10:13:25;;;;;;;40.92;16.67;;;4.00;99.90;;;;;;6242090;23;20043;-84
2023/03/02 10:16:02;;;;;;;41.65;17.77;;;4.10;99.90;;;;;;6218185;23;20000;-84
2023/03/02 10:18:49;;;;;;;42.72;17.88;;;4.10;99.90;;;;;;6219364;23;20008;-84
2023/03/02 10:21:39;;;;;;;42.17;16.98;;;4.10;99.90;;;;;;6218574;23;20023;-83
2023/03/02 10:24:32;;;;;;;42.20;17.83;;;4.10;99.90;;;;;;6218390;23;20004;-83
2023/03/02 10:27:11;;;;;;;36.38;16.65;;;4.20;99.90;;;;;;6244486;23;20032;-83
2023/03/02 10:29:51;;;;;;;43.15;17.63;;;4.30;99.90;;;;;;6218944;23;20008;-84
2023/03/02 10:32:29;;;;;;;44.40;17.52;;;4.30;99.90;;;;;;6219256;23;20008;-84
2023/03/02 10:34:58;;;;;;;38.55;17.40;;;4.40;99.90;;;;;;6219326;23;20046;-85
2023/03/02 10:37:27;;;;;;;41.40;17.73;;;4.50;99.90;;;;;;6246480;23;19996;-84
2023/03/02 10:39:54;;;;;;;38.22;15.65;;;4.50;99.90;;;;;;6218563;23;20015;-84
2023/03/02 10:42:32;;;;;;;39.45;16.30;;;4.60;99.90;;;;;;6218413;23;20008;-83
2023/03/02 10:45:23;;;;;;;26.58;12.60;;;4.70;99.90;;;;;;6219341;23;20008;-83
2023/03/02 10:48:05;;;;;;;38.85;17.52;;;4.80;99.90;;;;;;6219004;23;20001;-84
2023/03/02 10:50:32;;;;;;;37.13;17.15;;;4.90;99.90;;;;;;6218835;23;20008;-84
2023/03/02 10:52:58;;;;;;;36.67;16.08;;;5.00;99.90;;;;;;6219931;23;20022;-83
2023/03/02 10:55:24;;;;;;;36.83;16.20;;;5.00;99.90;;;;;;6221076;23;20004;-84
2023/03/02 10:58:02;;;;;;;42.90;18.85;;;5.10;99.90;;;;;;6220999;23;20003;-84
2023/03/02 11:00:29;;;;;;;38.00;16.65;;;5.20;99.90;;;;;;6246054;23;19996;-84
2023/03/02 11:02:56;;;;;;;37.00;16.48;;;5.20;99.90;;;;;;6219122;23;20011;-85
2023/03/02 11:05:33;;;;;;;35.15;14.57;;;5.30;99.90;;;;;;6221629;23;20034;-85
2023/03/02 11:08:04;;;;;;;31.10;13.63;;;5.40;99.90;;;;;;6248733;23;20456;-84
2023/03/02 11:10:36;;;;;;;31.35;14.50;;;5.50;99.90;;;;;;6221517;22;20004;-85
2023/03/02 11:13:19;;;;;;;30.55;13.82;;;5.60;99.90;;;;;;6222226;23;20390;-84
2023/03/02 11:15:46;;;;;;;32.67;14.23;;;5.70;99.90;;;;;;6220507;23;20000;-85
2023/03/02 11:18:23;;;;;;;31.17;14.25;;;5.80;99.90;;;;;;6220178;23;20008;-85
2023/03/02 11:20:53;;;;;;;27.40;13.05;;;5.90;99.90;;;;;;6222034;23;20039;-85
2023/03/02 11:23:33;;;;;;;29.38;13.77;;;6.00;99.90;;;;;;6221292;23;20342;-85
2023/03/02 11:26:04;;;;;;;28.38;12.63;;;6.10;99.90;;;;;;6249487;23;20012;-84
2023/03/02 11:28:46;;;;;;;27.85;12.88;;;6.10;99.90;;;;;;6223881;23;20012;-85
2023/03/02 11:31:24;;;;;;;25.27;11.77;;;6.20;99.90;;;;;;6246612;23;20000;-85
2023/03/02 11:34:22;;;;;;;22.63;10.63;;;6.30;99.90;;;;;;6221325;23;20019;-85
2023/03/02 11:37:01;;;;;;;27.30;12.23;;;6.40;99.90;;;;;;6209833;23;20012;-85
2023/03/02 11:39:46;;;;;;;26.58;13.10;;;6.50;99.90;;;;;;6245992;22;20075;-85
2023/03/02 11:42:28;;;;;;;23.48;12.10;;;6.60;99.90;;;;;;6220276;23;20031;-85
2023/03/02 11:44:54;;;;;;;24.90;11.73;;;6.70;99.90;;;;;;6247373;23;20000;-85
2023/03/02 11:47:21;;;;;;;24.58;11.02;;;6.80;99.90;;;;;;6220247;23;20011;-85
2023/03/02 11:49:55;;;;;;;23.92;11.40;;;6.80;99.90;;;;;;6219889;23;20442;-89
2023/03/02 11:52:25;;;;;;;21.13;10.05;;;6.80;99.90;;;;;;6246332;23;20492;-85
2023/03/02 11:54:58;;;;;;;26.52;12.00;;;7.00;99.90;;;;;;6245442;22;20001;-87
2023/03/02 11:57:39;;;;;;;23.42;11.63;;;7.00;99.90;;;;;;6219196;23;20008;-87
2023/03/02 12:00:28;;;;;;;22.55;11.48;;;7.20;99.90;;;;;;6218434;23;20052;-86
2023/03/02 12:03:02;;;;;;;21.60;10.43;;;7.20;99.90;;;;;;6217721;23;20142;-87
2023/03/02 12:05:30;;;;;;;22.50;10.40;;;7.30;99.90;;;;;;6219052;23;20011;-86
2023/03/02 12:08:15;;;;;;;21.17;10.05;;;7.40;99.90;;;;;;6250280;23;20046;-86
2023/03/02 12:10:53;;;;;;;22.67;9.75;;;7.50;99.90;;;;;;6246759;23;20028;-86
2023/03/02 12:13:25;;;;;;;19.42;9.80;;;7.50;99.90;;;;;;6221273;23;20419;-86
2023/03/02 12:15:51;;;;;;;18.53;9.33;;;7.60;99.60;;;;;;6220150;23;20004;-86
2023/03/02 12:18:19;;;;;;;24.48;11.05;;;7.70;99.90;;;;;;6216974;23;20004;-86
2023/03/02 12:20:45;;;;;;;23.75;11.95;;;7.80;99.70;;;;;;6217177;23;20024;-85
2023/03/02 12:23:24;;;;;;;28.10;12.05;;;7.80;99.90;;;;;;6220704;23;20135;-84
2023/03/02 12:26:20;;;;;;;24.80;12.50;;;7.80;99.90;;;;;;6219994;23;20138;-86
2023/03/02 12:29:02;;;;;;;21.77;11.25;;;7.80;99.90;;;;;;6202442;23;20369;-86
2023/03/02 12:31:51;;;;;;;23.92;11.80;;;7.80;99.90;;;;;;6216990;23;20008;-85
2023/03/02 12:34:22;;;;;;;23.70;10.68;;;7.80;99.90;;;;;;6217541;23;20073;-85
2023/03/02 12:36:59;;;;;;;22.23;11.27;;;7.90;99.90;;;;;;6216244;23;20011;-85
2023/03/02 12:39:52;;;;;;;21.48;11.20;;;7.90;99.90;;;;;;6210739;23;20091;-85
2023/03/02 12:42:43;;;;;;;17.20;9.48;;;7.90;99.90;;;;;;6216377;23;20004;-85
2023/03/02 12:45:31;;;;;;;20.10;10.35;;;8.10;99.90;;;;;;6215495;23;20137;-85
2023/03/02 12:48:22;;;;;;;20.13;10.13;;;8.20;99.90;;;;;;6216367;23;20063;-85